sensor_id;sensor_type;location;lat;lon;timestamp;P1;durP1;ratioP1;P2;durP2;ratioP2
7160;SDS011;3622;53.576;9.978;2022-09-09T00:03:45;40.57;;;23.50;;
7160;SDS011;3622;53.576;9.978;2022-09-09T00:06:24;37.83;;;21.03;;
7160;SDS011;3622;53.576;9.978;2022-09-09T00:11:23;42.63;;;22.93;;
7160;SDS011;3622;53.576;9.978;2022-09-09T00:13:52;41.67;;;22.97;;
7160;SDS011;3622;53.576;9.978;2022-09-09T00:16:25;36.97;;;21.20;;
7160;SDS011;3622;53.576;9.978;2022-09-09T00:21:38;42.50;;;22.40;;
7160;SDS011;3622;53.576;9.978;2022-09-09T00:24:11;44.60;;;26.77;;
7160;SDS011;3622;53.576;9.978;2022-09-09T00:26:42;45.57;;;28.47;;
7160;SDS011;3622;53.576;9.978;2022-09-09T00:29:30;37.87;;;22.20;;
7160;SDS011;3622;53.576;9.978;2022-09-09T00:32:05;47.77;;;24.70;;
7160;SDS011;3622;53.576;9.978;2022-09-09T00:34:31;42.13;;;22.60;;
7160;SDS011;3622;53.576;9.978;2022-09-09T00:36:57;54.13;;;31.47;;
7160;SDS011;3622;53.576;9.978;2022-09-09T00:39:37;42.53;;;24.73;;
7160;SDS011;3622;53.576;9.978;2022-09-09T00:44:36;60.23;;;32.57;;
7160;SDS011;3622;53.576;9.978;2022-09-09T00:49:43;42.80;;;23.70;;
7160;SDS011;3622;53.576;9.978;2022-09-09T00:57:18;64.07;;;32.73;;
7160;SDS011;3622;53.576;9.978;2022-09-09T01:02:28;44.63;;;23.63;;
7160;SDS011;3622;53.576;9.978;2022-09-09T01:04:57;46.43;;;24.83;;
7160;SDS011;3622;53.576;9.978;2022-09-09T01:07:40;44.13;;;23.70;;
7160;SDS011;3622;53.576;9.978;2022-09-09T01:10:16;43.03;;;23.03;;
7160;SDS011;3622;53.576;9.978;2022-09-09T01:12:46;36.07;;;20.13;;
7160;SDS011;3622;53.576;9.978;2022-09-09T01:15:29;38.30;;;21.00;;
7160;SDS011;3622;53.576;9.978;2022-09-09T01:28:34;34.70;;;19.83;;
7160;SDS011;3622;53.576;9.978;2022-09-09T01:31:02;34.50;;;20.00;;
7160;SDS011;3622;53.576;9.978;2022-09-09T01:33:28;35.50;;;19.87;;
7160;SDS011;3622;53.576;9.978;2022-09-09T01:36:05;42.67;;;21.90;;
7160;SDS011;3622;53.576;9.978;2022-09-09T01:38:33;32.60;;;18.37;;
7160;SDS011;3622;53.576;9.978;2022-09-09T01:41:00;42.40;;;23.60;;
7160;SDS011;3622;53.576;9.978;2022-09-09T01:43:26;34.07;;;18.70;;
7160;SDS011;3622;53.576;9.978;2022-09-09T01:45:53;31.87;;;18.67;;
7160;SDS011;3622;53.576;9.978;2022-09-09T01:48:20;37.73;;;18.80;;
7160;SDS011;3622;53.576;9.978;2022-09-09T01:50:47;33.57;;;17.53;;
7160;SDS011;3622;53.576;9.978;2022-09-09T01:53:13;31.53;;;17.93;;
7160;SDS011;3622;53.576;9.978;2022-09-09T01:55:40;35.53;;;19.30;;
7160;SDS011;3622;53.576;9.978;2022-09-09T02:00:54;37.30;;;20.40;;
7160;SDS011;3622;53.576;9.978;2022-09-09T02:03:27;33.53;;;19.50;;
7160;SDS011;3622;53.576;9.978;2022-09-09T02:06:14;34.00;;;19.00;;
7160;SDS011;3622;53.576;9.978;2022-09-09T02:08:45;33.70;;;18.17;;
7160;SDS011;3622;53.576;9.978;2022-09-09T02:11:19;43.23;;;20.57;;
7160;SDS011;3622;53.576;9.978;2022-09-09T02:13:46;35.03;;;19.00;;
7160;SDS011;3622;53.576;9.978;2022-09-09T02:16:15;30.83;;;17.33;;
7160;SDS011;3622;53.576;9.978;2022-09-09T02:18:51;34.30;;;18.07;;
7160;SDS011;3622;53.576;9.978;2022-09-09T02:21:18;34.87;;;18.13;;
7160;SDS011;3622;53.576;9.978;2022-09-09T02:23:46;30.97;;;17.47;;
7160;SDS011;3622;53.576;9.978;2022-09-09T02:26:13;36.03;;;19.13;;
7160;SDS011;3622;53.576;9.978;2022-09-09T02:28:45;36.30;;;19.50;;
7160;SDS011;3622;53.576;9.978;2022-09-09T02:31:11;33.77;;;18.13;;
7160;SDS011;3622;53.576;9.978;2022-09-09T02:33:42;31.13;;;17.17;;
7160;SDS011;3622;53.576;9.978;2022-09-09T02:36:10;29.73;;;17.77;;
7160;SDS011;3622;53.576;9.978;2022-09-09T02:38:40;34.17;;;18.60;;
7160;SDS011;3622;53.576;9.978;2022-09-09T02:41:08;35.03;;;18.33;;
7160;SDS011;3622;53.576;9.978;2022-09-09T02:43:35;32.13;;;17.60;;
7160;SDS011;3622;53.576;9.978;2022-09-09T02:51:53;29.73;;;18.07;;
7160;SDS011;3622;53.576;9.978;2022-09-09T02:54:28;29.90;;;17.20;;
7160;SDS011;3622;53.576;9.978;2022-09-09T02:56:55;28.03;;;16.90;;
7160;SDS011;3622;53.576;9.978;2022-09-09T02:59:22;30.97;;;16.70;;
7160;SDS011;3622;53.576;9.978;2022-09-09T03:01:50;30.40;;;16.90;;
7160;SDS011;3622;53.576;9.978;2022-09-09T03:04:16;32.70;;;17.63;;
7160;SDS011;3622;53.576;9.978;2022-09-09T03:06:42;33.50;;;18.10;;
7160;SDS011;3622;53.576;9.978;2022-09-09T03:09:09;34.27;;;17.23;;
7160;SDS011;3622;53.576;9.978;2022-09-09T03:11:35;27.90;;;16.00;;
7160;SDS011;3622;53.576;9.978;2022-09-09T03:14:01;29.17;;;17.20;;
7160;SDS011;3622;53.576;9.978;2022-09-09T03:16:27;34.43;;;17.60;;
7160;SDS011;3622;53.576;9.978;2022-09-09T03:18:53;29.27;;;16.67;;
7160;SDS011;3622;53.576;9.978;2022-09-09T03:21:19;33.70;;;17.63;;
7160;SDS011;3622;53.576;9.978;2022-09-09T03:23:45;26.07;;;17.10;;
7160;SDS011;3622;53.576;9.978;2022-09-09T03:26:11;27.60;;;16.17;;
7160;SDS011;3622;53.576;9.978;2022-09-09T03:28:40;27.77;;;15.87;;
7160;SDS011;3622;53.576;9.978;2022-09-09T03:31:06;24.33;;;14.70;;
7160;SDS011;3622;53.576;9.978;2022-09-09T03:33:35;29.40;;;16.23;;
7160;SDS011;3622;53.576;9.978;2022-09-09T03:36:02;24.57;;;15.57;;
7160;SDS011;3622;53.576;9.978;2022-09-09T03:38:28;26.90;;;15.83;;
7160;SDS011;3622;53.576;9.978;2022-09-09T03:40:54;24.20;;;15.03;;
7160;SDS011;3622;53.576;9.978;2022-09-09T03:43:22;25.83;;;15.53;;
7160;SDS011;3622;53.576;9.978;2022-09-09T03:45:48;26.63;;;15.30;;
7160;SDS011;3622;53.576;9.978;2022-09-09T03:48:14;26.30;;;16.07;;
7160;SDS011;3622;53.576;9.978;2022-09-09T03:50:44;26.40;;;15.90;;
7160;SDS011;3622;53.576;9.978;2022-09-09T03:53:10;25.97;;;14.40;;
7160;SDS011;3622;53.576;9.978;2022-09-09T03:55:36;30.13;;;15.53;;
7160;SDS011;3622;53.576;9.978;2022-09-09T03:58:02;26.07;;;16.00;;
7160;SDS011;3622;53.576;9.978;2022-09-09T04:00:28;22.57;;;14.23;;
7160;SDS011;3622;53.576;9.978;2022-09-09T04:02:55;26.00;;;15.50;;
7160;SDS011;3622;53.576;9.978;2022-09-09T04:05:22;28.20;;;16.37;;
7160;SDS011;3622;53.576;9.978;2022-09-09T04:07:48;22.83;;;15.30;;
7160;SDS011;3622;53.576;9.978;2022-09-09T04:10:16;23.90;;;15.17;;
7160;SDS011;3622;53.576;9.978;2022-09-09T04:12:42;22.87;;;14.70;;
7160;SDS011;3622;53.576;9.978;2022-09-09T04:15:08;25.10;;;15.30;;
7160;SDS011;3622;53.576;9.978;2022-09-09T04:17:35;24.53;;;15.07;;
7160;SDS011;3622;53.576;9.978;2022-09-09T04:20:01;25.77;;;15.40;;
7160;SDS011;3622;53.576;9.978;2022-09-09T04:22:27;26.73;;;14.97;;
7160;SDS011;3622;53.576;9.978;2022-09-09T04:24:53;24.20;;;15.47;;
7160;SDS011;3622;53.576;9.978;2022-09-09T04:27:20;25.40;;;15.87;;
7160;SDS011;3622;53.576;9.978;2022-09-09T04:29:46;26.33;;;15.10;;
7160;SDS011;3622;53.576;9.978;2022-09-09T04:32:12;25.57;;;15.20;;
7160;SDS011;3622;53.576;9.978;2022-09-09T04:34:38;27.00;;;14.80;;
7160;SDS011;3622;53.576;9.978;2022-09-09T04:37:04;24.50;;;14.07;;
7160;SDS011;3622;53.576;9.978;2022-09-09T04:39:30;22.17;;;14.80;;
7160;SDS011;3622;53.576;9.978;2022-09-09T04:41:56;21.17;;;13.17;;
7160;SDS011;3622;53.576;9.978;2022-09-09T04:44:22;21.70;;;15.10;;
7160;SDS011;3622;53.576;9.978;2022-09-09T04:46:48;22.50;;;13.77;;
7160;SDS011;3622;53.576;9.978;2022-09-09T04:49:14;22.03;;;14.10;;
7160;SDS011;3622;53.576;9.978;2022-09-09T04:51:40;21.70;;;14.20;;
7160;SDS011;3622;53.576;9.978;2022-09-09T04:54:06;19.67;;;13.30;;
7160;SDS011;3622;53.576;9.978;2022-09-09T04:56:32;20.83;;;12.77;;
7160;SDS011;3622;53.576;9.978;2022-09-09T04:58:58;23.73;;;15.17;;
7160;SDS011;3622;53.576;9.978;2022-09-09T05:01:24;25.77;;;14.97;;
7160;SDS011;3622;53.576;9.978;2022-09-09T05:03:50;19.97;;;12.90;;
7160;SDS011;3622;53.576;9.978;2022-09-09T05:06:18;20.07;;;12.10;;
7160;SDS011;3622;53.576;9.978;2022-09-09T05:08:45;17.83;;;12.50;;
7160;SDS011;3622;53.576;9.978;2022-09-09T05:11:15;20.70;;;13.97;;
7160;SDS011;3622;53.576;9.978;2022-09-09T05:13:41;17.60;;;11.83;;
7160;SDS011;3622;53.576;9.978;2022-09-09T05:16:07;19.47;;;11.70;;
7160;SDS011;3622;53.576;9.978;2022-09-09T05:18:36;16.40;;;10.93;;
7160;SDS011;3622;53.576;9.978;2022-09-09T05:21:02;24.53;;;13.73;;
7160;SDS011;3622;53.576;9.978;2022-09-09T05:23:28;24.33;;;14.47;;
7160;SDS011;3622;53.576;9.978;2022-09-09T05:25:57;15.07;;;11.17;;
7160;SDS011;3622;53.576;9.978;2022-09-09T05:28:26;17.73;;;12.30;;
7160;SDS011;3622;53.576;9.978;2022-09-09T05:31:00;18.73;;;11.63;;
7160;SDS011;3622;53.576;9.978;2022-09-09T05:33:28;29.40;;;15.30;;
7160;SDS011;3622;53.576;9.978;2022-09-09T05:36:13;19.73;;;12.47;;
7160;SDS011;3622;53.576;9.978;2022-09-09T05:38:40;16.43;;;10.40;;
7160;SDS011;3622;53.576;9.978;2022-09-09T05:41:06;27.87;;;14.67;;
7160;SDS011;3622;53.576;9.978;2022-09-09T05:43:32;14.70;;;10.30;;
7160;SDS011;3622;53.576;9.978;2022-09-09T05:49:00;14.30;;;10.00;;
7160;SDS011;3622;53.576;9.978;2022-09-09T05:51:19;11.17;;;7.80;;
7160;SDS011;3622;53.576;9.978;2022-09-09T05:53:46;9.50;;;7.80;;
7160;SDS011;3622;53.576;9.978;2022-09-09T05:56:20;8.60;;;7.20;;
7160;SDS011;3622;53.576;9.978;2022-09-09T05:58:50;8.40;;;7.47;;
7160;SDS011;3622;53.576;9.978;2022-09-09T06:01:21;8.40;;;7.60;;
7160;SDS011;3622;53.576;9.978;2022-09-09T06:03:48;7.17;;;6.47;;
7160;SDS011;3622;53.576;9.978;2022-09-09T06:06:16;9.30;;;6.00;;
7160;SDS011;3622;53.576;9.978;2022-09-09T06:08:42;7.90;;;6.70;;
7160;SDS011;3622;53.576;9.978;2022-09-09T06:11:13;11.20;;;7.00;;
7160;SDS011;3622;53.576;9.978;2022-09-09T06:13:39;7.47;;;6.70;;
7160;SDS011;3622;53.576;9.978;2022-09-09T06:16:08;10.07;;;6.57;;
7160;SDS011;3622;53.576;9.978;2022-09-09T06:18:34;9.43;;;6.80;;
7160;SDS011;3622;53.576;9.978;2022-09-09T06:21:01;7.00;;;6.30;;
7160;SDS011;3622;53.576;9.978;2022-09-09T06:23:28;7.37;;;6.60;;
7160;SDS011;3622;53.576;9.978;2022-09-09T06:26:05;7.53;;;6.83;;
7160;SDS011;3622;53.576;9.978;2022-09-09T06:28:34;9.83;;;7.83;;
7160;SDS011;3622;53.576;9.978;2022-09-09T06:31:01;9.97;;;7.30;;
7160;SDS011;3622;53.576;9.978;2022-09-09T06:33:32;9.37;;;7.00;;
7160;SDS011;3622;53.576;9.978;2022-09-09T06:36:00;16.53;;;8.10;;
7160;SDS011;3622;53.576;9.978;2022-09-09T06:38:26;11.00;;;7.27;;
7160;SDS011;3622;53.576;9.978;2022-09-09T06:40:56;13.50;;;6.87;;
7160;SDS011;3622;53.576;9.978;2022-09-09T06:43:23;8.43;;;6.70;;
7160;SDS011;3622;53.576;9.978;2022-09-09T06:45:52;13.63;;;9.60;;
7160;SDS011;3622;53.576;9.978;2022-09-09T06:48:19;15.17;;;8.10;;
7160;SDS011;3622;53.576;9.978;2022-09-09T06:50:45;14.03;;;7.83;;
7160;SDS011;3622;53.576;9.978;2022-09-09T06:53:11;19.07;;;13.43;;
7160;SDS011;3622;53.576;9.978;2022-09-09T06:55:37;9.53;;;7.33;;
7160;SDS011;3622;53.576;9.978;2022-09-09T06:58:08;11.93;;;7.30;;
7160;SDS011;3622;53.576;9.978;2022-09-09T07:00:34;10.27;;;7.90;;
7160;SDS011;3622;53.576;9.978;2022-09-09T07:03:02;15.93;;;10.93;;
7160;SDS011;3622;53.576;9.978;2022-09-09T07:05:28;17.57;;;11.23;;
7160;SDS011;3622;53.576;9.978;2022-09-09T07:07:54;6.40;;;5.90;;
7160;SDS011;3622;53.576;9.978;2022-09-09T07:10:20;9.53;;;6.97;;
7160;SDS011;3622;53.576;9.978;2022-09-09T07:12:50;13.17;;;6.00;;
7160;SDS011;3622;53.576;9.978;2022-09-09T07:15:17;13.03;;;5.83;;
7160;SDS011;3622;53.576;9.978;2022-09-09T07:17:43;8.33;;;5.93;;
7160;SDS011;3622;53.576;9.978;2022-09-09T07:20:10;5.40;;;4.83;;
7160;SDS011;3622;53.576;9.978;2022-09-09T07:22:36;8.23;;;7.43;;
7160;SDS011;3622;53.576;9.978;2022-09-09T07:25:02;6.90;;;6.30;;
7160;SDS011;3622;53.576;9.978;2022-09-09T07:27:28;9.40;;;7.20;;
7160;SDS011;3622;53.576;9.978;2022-09-09T07:29:55;6.70;;;5.53;;
7160;SDS011;3622;53.576;9.978;2022-09-09T07:32:22;10.20;;;6.43;;
7160;SDS011;3622;53.576;9.978;2022-09-09T07:34:48;7.80;;;6.87;;
7160;SDS011;3622;53.576;9.978;2022-09-09T07:37:15;22.50;;;14.50;;
7160;SDS011;3622;53.576;9.978;2022-09-09T07:39:42;26.60;;;14.00;;
7160;SDS011;3622;53.576;9.978;2022-09-09T07:42:08;16.57;;;9.47;;
7160;SDS011;3622;53.576;9.978;2022-09-09T07:44:36;8.10;;;5.63;;
7160;SDS011;3622;53.576;9.978;2022-09-09T07:47:04;14.73;;;9.93;;
7160;SDS011;3622;53.576;9.978;2022-09-09T07:49:30;8.33;;;5.70;;
7160;SDS011;3622;53.576;9.978;2022-09-09T07:51:57;9.30;;;7.10;;
7160;SDS011;3622;53.576;9.978;2022-09-09T07:54:23;11.57;;;6.60;;
7160;SDS011;3622;53.576;9.978;2022-09-09T07:56:50;4.73;;;4.40;;
7160;SDS011;3622;53.576;9.978;2022-09-09T07:59:16;6.80;;;5.03;;
7160;SDS011;3622;53.576;9.978;2022-09-09T08:01:44;5.63;;;5.13;;
7160;SDS011;3622;53.576;9.978;2022-09-09T08:04:12;6.97;;;5.60;;
7160;SDS011;3622;53.576;9.978;2022-09-09T08:06:41;7.07;;;5.30;;
7160;SDS011;3622;53.576;9.978;2022-09-09T08:09:08;8.40;;;6.07;;
7160;SDS011;3622;53.576;9.978;2022-09-09T08:11:34;8.50;;;6.63;;
7160;SDS011;3622;53.576;9.978;2022-09-09T08:14:01;5.73;;;5.33;;
7160;SDS011;3622;53.576;9.978;2022-09-09T08:16:28;9.63;;;8.43;;
7160;SDS011;3622;53.576;9.978;2022-09-09T08:18:55;13.67;;;10.90;;
7160;SDS011;3622;53.576;9.978;2022-09-09T08:21:22;69.40;;;27.97;;
7160;SDS011;3622;53.576;9.978;2022-09-09T08:23:50;87.23;;;21.13;;
7160;SDS011;3622;53.576;9.978;2022-09-09T08:28:46;8.30;;;4.77;;
7160;SDS011;3622;53.576;9.978;2022-09-09T08:31:14;6.03;;;5.43;;
7160;SDS011;3622;53.576;9.978;2022-09-09T08:33:41;8.03;;;6.47;;
7160;SDS011;3622;53.576;9.978;2022-09-09T08:36:09;10.90;;;7.13;;
7160;SDS011;3622;53.576;9.978;2022-09-09T08:38:35;14.80;;;6.97;;
7160;SDS011;3622;53.576;9.978;2022-09-09T08:41:13;6.20;;;4.63;;
7160;SDS011;3622;53.576;9.978;2022-09-09T08:43:40;11.20;;;4.50;;
7160;SDS011;3622;53.576;9.978;2022-09-09T08:46:09;9.10;;;7.00;;
7160;SDS011;3622;53.576;9.978;2022-09-09T08:48:58;8.23;;;5.20;;
7160;SDS011;3622;53.576;9.978;2022-09-09T08:51:26;5.60;;;4.50;;
7160;SDS011;3622;53.576;9.978;2022-09-09T08:53:53;4.50;;;4.10;;
7160;SDS011;3622;53.576;9.978;2022-09-09T08:56:24;4.40;;;3.83;;
7160;SDS011;3622;53.576;9.978;2022-09-09T08:58:51;4.30;;;3.60;;
7160;SDS011;3622;53.576;9.978;2022-09-09T09:04:06;4.40;;;4.00;;
7160;SDS011;3622;53.576;9.978;2022-09-09T09:06:42;3.50;;;3.20;;
7160;SDS011;3622;53.576;9.978;2022-09-09T09:09:14;3.07;;;2.83;;
7160;SDS011;3622;53.576;9.978;2022-09-09T09:11:46;3.07;;;2.87;;
7160;SDS011;3622;53.576;9.978;2022-09-09T09:14:25;3.97;;;3.57;;
7160;SDS011;3622;53.576;9.978;2022-09-09T09:19:28;4.30;;;3.90;;
7160;SDS011;3622;53.576;9.978;2022-09-09T09:24:27;3.43;;;3.00;;
7160;SDS011;3622;53.576;9.978;2022-09-09T09:26:57;4.40;;;3.47;;
7160;SDS011;3622;53.576;9.978;2022-09-09T09:29:25;4.17;;;3.00;;
7160;SDS011;3622;53.576;9.978;2022-09-09T09:31:52;4.70;;;3.63;;
7160;SDS011;3622;53.576;9.978;2022-09-09T09:34:22;4.63;;;2.90;;
7160;SDS011;3622;53.576;9.978;2022-09-09T09:36:56;3.53;;;3.27;;
7160;SDS011;3622;53.576;9.978;2022-09-09T09:39:23;2.17;;;2.00;;
7160;SDS011;3622;53.576;9.978;2022-09-09T09:41:49;2.63;;;2.20;;
7160;SDS011;3622;53.576;9.978;2022-09-09T09:44:27;3.13;;;2.90;;
7160;SDS011;3622;53.576;9.978;2022-09-09T09:47:04;4.23;;;3.80;;
7160;SDS011;3622;53.576;9.978;2022-09-09T09:49:30;5.77;;;2.90;;
7160;SDS011;3622;53.576;9.978;2022-09-09T09:52:06;5.60;;;4.07;;
7160;SDS011;3622;53.576;9.978;2022-09-09T09:54:33;2.17;;;2.00;;
7160;SDS011;3622;53.576;9.978;2022-09-09T09:57:12;6.70;;;3.30;;
7160;SDS011;3622;53.576;9.978;2022-09-09T09:59:40;3.07;;;2.40;;
7160;SDS011;3622;53.576;9.978;2022-09-09T10:02:31;2.70;;;2.30;;
7160;SDS011;3622;53.576;9.978;2022-09-09T10:05:00;5.57;;;3.67;;
7160;SDS011;3622;53.576;9.978;2022-09-09T10:07:27;3.87;;;3.03;;
7160;SDS011;3622;53.576;9.978;2022-09-09T10:09:54;4.70;;;3.63;;
7160;SDS011;3622;53.576;9.978;2022-09-09T10:12:34;3.53;;;2.73;;
7160;SDS011;3622;53.576;9.978;2022-09-09T10:20:43;4.47;;;4.07;;
7160;SDS011;3622;53.576;9.978;2022-09-09T10:25:56;4.07;;;3.70;;
7160;SDS011;3622;53.576;9.978;2022-09-09T10:33:26;3.37;;;1.93;;
7160;SDS011;3622;53.576;9.978;2022-09-09T10:35:57;3.77;;;3.47;;
7160;SDS011;3622;53.576;9.978;2022-09-09T10:38:42;7.40;;;5.47;;
7160;SDS011;3622;53.576;9.978;2022-09-09T10:43:56;8.20;;;3.40;;
7160;SDS011;3622;53.576;9.978;2022-09-09T10:49:12;3.40;;;1.80;;
7160;SDS011;3622;53.576;9.978;2022-09-09T10:56:55;2.50;;;1.70;;
7160;SDS011;3622;53.576;9.978;2022-09-09T10:59:25;2.33;;;1.70;;
7160;SDS011;3622;53.576;9.978;2022-09-09T11:02:01;2.63;;;2.43;;
7160;SDS011;3622;53.576;9.978;2022-09-09T11:04:37;2.53;;;2.00;;
7160;SDS011;3622;53.576;9.978;2022-09-09T11:07:06;2.50;;;2.30;;
7160;SDS011;3622;53.576;9.978;2022-09-09T11:09:36;4.40;;;1.63;;
7160;SDS011;3622;53.576;9.978;2022-09-09T11:12:04;3.67;;;2.10;;
7160;SDS011;3622;53.576;9.978;2022-09-09T11:14:33;7.83;;;2.17;;
7160;SDS011;3622;53.576;9.978;2022-09-09T11:17:02;1.93;;;1.43;;
7160;SDS011;3622;53.576;9.978;2022-09-09T11:21:56;1.93;;;1.70;;
7160;SDS011;3622;53.576;9.978;2022-09-09T11:24:26;4.00;;;1.80;;
7160;SDS011;3622;53.576;9.978;2022-09-09T11:26:55;1.60;;;1.50;;
7160;SDS011;3622;53.576;9.978;2022-09-09T11:32:09;4.50;;;1.60;;
7160;SDS011;3622;53.576;9.978;2022-09-09T11:39:44;2.30;;;1.40;;
7160;SDS011;3622;53.576;9.978;2022-09-09T11:42:18;3.83;;;1.43;;
7160;SDS011;3622;53.576;9.978;2022-09-09T11:44:44;2.30;;;1.90;;
7160;SDS011;3622;53.576;9.978;2022-09-09T11:47:19;3.10;;;2.00;;
7160;SDS011;3622;53.576;9.978;2022-09-09T11:49:46;10.40;;;5.43;;
7160;SDS011;3622;53.576;9.978;2022-09-09T11:54:58;9.83;;;2.73;;
7160;SDS011;3622;53.576;9.978;2022-09-09T11:57:34;3.57;;;3.27;;
7160;SDS011;3622;53.576;9.978;2022-09-09T12:00:01;3.70;;;2.60;;
7160;SDS011;3622;53.576;9.978;2022-09-09T12:02:28;2.57;;;2.37;;
7160;SDS011;3622;53.576;9.978;2022-09-09T12:05:10;3.13;;;2.83;;
7160;SDS011;3622;53.576;9.978;2022-09-09T12:07:40;11.73;;;4.73;;
7160;SDS011;3622;53.576;9.978;2022-09-09T12:12:35;2.90;;;2.50;;
7160;SDS011;3622;53.576;9.978;2022-09-09T12:15:16;5.63;;;2.80;;
7160;SDS011;3622;53.576;9.978;2022-09-09T12:17:43;3.23;;;2.93;;
7160;SDS011;3622;53.576;9.978;2022-09-09T12:25:48;2.80;;;2.60;;
7160;SDS011;3622;53.576;9.978;2022-09-09T12:28:19;2.70;;;2.50;;
7160;SDS011;3622;53.576;9.978;2022-09-09T12:30:50;5.50;;;3.80;;
7160;SDS011;3622;53.576;9.978;2022-09-09T12:33:20;3.90;;;2.50;;
7160;SDS011;3622;53.576;9.978;2022-09-09T12:35:49;3.50;;;2.50;;
7160;SDS011;3622;53.576;9.978;2022-09-09T12:38:29;2.93;;;2.70;;
7160;SDS011;3622;53.576;9.978;2022-09-09T12:40:57;2.07;;;1.87;;
7160;SDS011;3622;53.576;9.978;2022-09-09T12:43:25;2.60;;;2.37;;
7160;SDS011;3622;53.576;9.978;2022-09-09T12:45:51;2.27;;;2.17;;
7160;SDS011;3622;53.576;9.978;2022-09-09T12:48:22;3.30;;;3.00;;
7160;SDS011;3622;53.576;9.978;2022-09-09T12:50:50;4.50;;;2.80;;
7160;SDS011;3622;53.576;9.978;2022-09-09T12:55:52;3.60;;;2.80;;
7160;SDS011;3622;53.576;9.978;2022-09-09T12:58:18;4.07;;;3.23;;
7160;SDS011;3622;53.576;9.978;2022-09-09T13:00:49;6.37;;;3.00;;
7160;SDS011;3622;53.576;9.978;2022-09-09T13:03:17;3.27;;;3.00;;
7160;SDS011;3622;53.576;9.978;2022-09-09T13:05:43;3.77;;;3.30;;
7160;SDS011;3622;53.576;9.978;2022-09-09T13:08:12;5.63;;;5.13;;
7160;SDS011;3622;53.576;9.978;2022-09-09T13:13:17;5.80;;;4.73;;
7160;SDS011;3622;53.576;9.978;2022-09-09T13:15:48;6.80;;;4.33;;
7160;SDS011;3622;53.576;9.978;2022-09-09T13:18:15;3.93;;;3.67;;
7160;SDS011;3622;53.576;9.978;2022-09-09T13:20:45;10.13;;;4.80;;
7160;SDS011;3622;53.576;9.978;2022-09-09T13:23:12;7.50;;;5.03;;
7160;SDS011;3622;53.576;9.978;2022-09-09T13:25:38;5.83;;;4.70;;
7160;SDS011;3622;53.576;9.978;2022-09-09T13:28:05;4.90;;;4.50;;
7160;SDS011;3622;53.576;9.978;2022-09-09T13:30:32;4.60;;;4.10;;
7160;SDS011;3622;53.576;9.978;2022-09-09T13:33:05;9.10;;;4.43;;
7160;SDS011;3622;53.576;9.978;2022-09-09T13:35:32;14.03;;;4.70;;
7160;SDS011;3622;53.576;9.978;2022-09-09T13:37:58;5.37;;;4.40;;
7160;SDS011;3622;53.576;9.978;2022-09-09T13:40:25;5.03;;;4.33;;
7160;SDS011;3622;53.576;9.978;2022-09-09T13:42:51;5.67;;;4.50;;
7160;SDS011;3622;53.576;9.978;2022-09-09T13:45:19;6.87;;;4.70;;
7160;SDS011;3622;53.576;9.978;2022-09-09T13:47:45;9.30;;;4.70;;
7160;SDS011;3622;53.576;9.978;2022-09-09T13:50:22;6.97;;;5.60;;
7160;SDS011;3622;53.576;9.978;2022-09-09T13:52:53;15.63;;;8.17;;
7160;SDS011;3622;53.576;9.978;2022-09-09T13:55:20;17.43;;;10.20;;
7160;SDS011;3622;53.576;9.978;2022-09-09T13:58:02;7.47;;;5.87;;
7160;SDS011;3622;53.576;9.978;2022-09-09T14:00:30;6.63;;;5.40;;
7160;SDS011;3622;53.576;9.978;2022-09-09T14:02:56;8.13;;;5.40;;
7160;SDS011;3622;53.576;9.978;2022-09-09T14:05:22;9.90;;;7.17;;
7160;SDS011;3622;53.576;9.978;2022-09-09T14:07:49;6.47;;;5.60;;
7160;SDS011;3622;53.576;9.978;2022-09-09T14:10:15;15.70;;;10.60;;
7160;SDS011;3622;53.576;9.978;2022-09-09T14:12:41;9.60;;;7.77;;
7160;SDS011;3622;53.576;9.978;2022-09-09T14:15:09;18.83;;;12.70;;
7160;SDS011;3622;53.576;9.978;2022-09-09T14:17:35;12.97;;;8.20;;
7160;SDS011;3622;53.576;9.978;2022-09-09T14:20:02;23.07;;;11.30;;
7160;SDS011;3622;53.576;9.978;2022-09-09T14:22:30;15.87;;;10.30;;
7160;SDS011;3622;53.576;9.978;2022-09-09T14:24:56;8.33;;;6.00;;
7160;SDS011;3622;53.576;9.978;2022-09-09T14:27:22;8.63;;;6.13;;
7160;SDS011;3622;53.576;9.978;2022-09-09T14:29:50;13.50;;;7.13;;
7160;SDS011;3622;53.576;9.978;2022-09-09T14:32:16;7.00;;;6.40;;
7160;SDS011;3622;53.576;9.978;2022-09-09T14:34:42;10.90;;;7.00;;
7160;SDS011;3622;53.576;9.978;2022-09-09T14:37:08;8.20;;;6.50;;
7160;SDS011;3622;53.576;9.978;2022-09-09T14:39:35;4.70;;;4.40;;
7160;SDS011;3622;53.576;9.978;2022-09-09T14:42:00;7.27;;;5.37;;
7160;SDS011;3622;53.576;9.978;2022-09-09T14:44:27;10.57;;;5.77;;
7160;SDS011;3622;53.576;9.978;2022-09-09T14:46:54;6.37;;;5.63;;
7160;SDS011;3622;53.576;9.978;2022-09-09T14:49:20;8.90;;;4.87;;
7160;SDS011;3622;53.576;9.978;2022-09-09T14:51:46;13.10;;;8.20;;
7160;SDS011;3622;53.576;9.978;2022-09-09T14:54:12;8.80;;;5.70;;
7160;SDS011;3622;53.576;9.978;2022-09-09T14:56:39;2.90;;;2.77;;
7160;SDS011;3622;53.576;9.978;2022-09-09T14:59:05;8.60;;;6.80;;
7160;SDS011;3622;53.576;9.978;2022-09-09T15:01:31;9.07;;;6.63;;
7160;SDS011;3622;53.576;9.978;2022-09-09T15:03:59;8.57;;;7.60;;
7160;SDS011;3622;53.576;9.978;2022-09-09T15:06:27;9.83;;;5.30;;
7160;SDS011;3622;53.576;9.978;2022-09-09T15:08:54;11.27;;;8.53;;
7160;SDS011;3622;53.576;9.978;2022-09-09T15:11:22;5.10;;;4.60;;
7160;SDS011;3622;53.576;9.978;2022-09-09T15:13:50;7.63;;;5.00;;
7160;SDS011;3622;53.576;9.978;2022-09-09T15:16:18;24.77;;;11.97;;
7160;SDS011;3622;53.576;9.978;2022-09-09T15:18:44;6.43;;;5.77;;
7160;SDS011;3622;53.576;9.978;2022-09-09T15:21:14;7.13;;;5.73;;
7160;SDS011;3622;53.576;9.978;2022-09-09T15:23:41;11.00;;;5.30;;
7160;SDS011;3622;53.576;9.978;2022-09-09T15:26:07;15.07;;;9.13;;
7160;SDS011;3622;53.576;9.978;2022-09-09T15:28:33;3.70;;;3.47;;
7160;SDS011;3622;53.576;9.978;2022-09-09T15:31:22;9.40;;;5.40;;
7160;SDS011;3622;53.576;9.978;2022-09-09T15:33:52;9.40;;;6.53;;
7160;SDS011;3622;53.576;9.978;2022-09-09T15:36:22;4.90;;;4.50;;
7160;SDS011;3622;53.576;9.978;2022-09-09T15:38:49;5.20;;;4.07;;
7160;SDS011;3622;53.576;9.978;2022-09-09T15:41:16;5.13;;;4.77;;
7160;SDS011;3622;53.576;9.978;2022-09-09T15:43:46;6.43;;;5.83;;
7160;SDS011;3622;53.576;9.978;2022-09-09T15:46:22;8.73;;;7.90;;
7160;SDS011;3622;53.576;9.978;2022-09-09T15:48:56;8.63;;;4.60;;
7160;SDS011;3622;53.576;9.978;2022-09-09T15:51:22;9.90;;;7.17;;
7160;SDS011;3622;53.576;9.978;2022-09-09T15:53:48;4.43;;;4.23;;
7160;SDS011;3622;53.576;9.978;2022-09-09T15:56:15;7.40;;;5.40;;
7160;SDS011;3622;53.576;9.978;2022-09-09T15:58:41;7.60;;;6.40;;
7160;SDS011;3622;53.576;9.978;2022-09-09T16:01:09;8.97;;;7.60;;
7160;SDS011;3622;53.576;9.978;2022-09-09T16:03:37;12.00;;;5.10;;
7160;SDS011;3622;53.576;9.978;2022-09-09T16:06:04;6.20;;;5.70;;
7160;SDS011;3622;53.576;9.978;2022-09-09T16:08:31;2.00;;;1.90;;
7160;SDS011;3622;53.576;9.978;2022-09-09T16:11:03;15.43;;;9.93;;
7160;SDS011;3622;53.576;9.978;2022-09-09T16:13:32;8.33;;;6.73;;
7160;SDS011;3622;53.576;9.978;2022-09-09T16:15:58;7.20;;;5.70;;
7160;SDS011;3622;53.576;9.978;2022-09-09T16:18:24;8.10;;;6.80;;
7160;SDS011;3622;53.576;9.978;2022-09-09T16:20:54;7.60;;;5.50;;
7160;SDS011;3622;53.576;9.978;2022-09-09T16:23:20;8.10;;;3.97;;
7160;SDS011;3622;53.576;9.978;2022-09-09T16:25:55;4.70;;;2.30;;
7160;SDS011;3622;53.576;9.978;2022-09-09T16:28:21;4.03;;;3.13;;
7160;SDS011;3622;53.576;9.978;2022-09-09T16:30:47;2.90;;;2.70;;
7160;SDS011;3622;53.576;9.978;2022-09-09T16:33:13;4.53;;;3.43;;
7160;SDS011;3622;53.576;9.978;2022-09-09T16:35:39;3.23;;;2.30;;
7160;SDS011;3622;53.576;9.978;2022-09-09T16:38:06;2.47;;;2.37;;
7160;SDS011;3622;53.576;9.978;2022-09-09T16:40:35;5.00;;;2.80;;
7160;SDS011;3622;53.576;9.978;2022-09-09T16:43:01;3.40;;;3.10;;
7160;SDS011;3622;53.576;9.978;2022-09-09T16:45:27;4.37;;;2.40;;
7160;SDS011;3622;53.576;9.978;2022-09-09T16:47:54;8.87;;;7.80;;
7160;SDS011;3622;53.576;9.978;2022-09-09T16:50:20;9.80;;;7.93;;
7160;SDS011;3622;53.576;9.978;2022-09-09T16:52:46;3.60;;;3.40;;
7160;SDS011;3622;53.576;9.978;2022-09-09T16:55:12;16.40;;;12.27;;